sensor_id;sensor_type;location;lat;lon;timestamp;P1;durP1;ratioP1;P2;durP2;ratioP2
56991;SDS011;42885;49.754;18.636;2023-05-20T00:00:53;44.23;;;29.57;;
56991;SDS011;42885;49.754;18.636;2023-05-20T00:03:25;48.35;;;30.45;;
56991;SDS011;42885;49.754;18.636;2023-05-20T00:05:57;48.33;;;31.48;;
56991;SDS011;42885;49.754;18.636;2023-05-20T00:08:28;44.67;;;29.00;;
56991;SDS011;42885;49.754;18.636;2023-05-20T00:10:59;47.63;;;29.33;;
56991;SDS011;42885;49.754;18.636;2023-05-20T00:13:30;46.85;;;29.07;;
56991;SDS011;42885;49.754;18.636;2023-05-20T00:18:32;44.05;;;28.98;;
56991;SDS011;42885;49.754;18.636;2023-05-20T00:21:03;43.87;;;28.12;;
56991;SDS011;42885;49.754;18.636;2023-05-20T00:23:34;44.20;;;27.13;;
56991;SDS011;42885;49.754;18.636;2023-05-20T00:26:05;45.17;;;27.98;;
56991;SDS011;42885;49.754;18.636;2023-05-20T00:28:36;48.70;;;28.83;;
56991;SDS011;42885;49.754;18.636;2023-05-20T00:31:07;45.88;;;28.23;;
56991;SDS011;42885;49.754;18.636;2023-05-20T00:33:39;46.00;;;28.57;;
56991;SDS011;42885;49.754;18.636;2023-05-20T00:36:10;48.37;;;28.73;;
56991;SDS011;42885;49.754;18.636;2023-05-20T00:38:41;42.08;;;27.30;;
56991;SDS011;42885;49.754;18.636;2023-05-20T00:41:12;43.33;;;27.87;;
56991;SDS011;42885;49.754;18.636;2023-05-20T00:43:43;41.98;;;27.32;;
56991;SDS011;42885;49.754;18.636;2023-05-20T00:46:14;41.25;;;27.13;;
56991;SDS011;42885;49.754;18.636;2023-05-20T00:48:45;44.70;;;28.38;;
56991;SDS011;42885;49.754;18.636;2023-05-20T00:51:16;39.23;;;26.53;;
56991;SDS011;42885;49.754;18.636;2023-05-20T00:53:47;45.28;;;27.58;;
56991;SDS011;42885;49.754;18.636;2023-05-20T00:56:19;42.17;;;27.50;;
56991;SDS011;42885;49.754;18.636;2023-05-20T00:58:50;48.08;;;29.05;;
56991;SDS011;42885;49.754;18.636;2023-05-20T01:01:21;39.63;;;25.80;;
56991;SDS011;42885;49.754;18.636;2023-05-20T01:03:52;46.92;;;26.93;;
56991;SDS011;42885;49.754;18.636;2023-05-20T01:06:23;41.68;;;26.48;;
56991;SDS011;42885;49.754;18.636;2023-05-20T01:08:56;39.00;;;26.37;;
56991;SDS011;42885;49.754;18.636;2023-05-20T01:11:33;40.90;;;26.05;;
56991;SDS011;42885;49.754;18.636;2023-05-20T01:14:02;43.23;;;26.40;;
56991;SDS011;42885;49.754;18.636;2023-05-20T01:16:35;40.55;;;26.85;;
56991;SDS011;42885;49.754;18.636;2023-05-20T01:19:17;39.53;;;24.70;;
56991;SDS011;42885;49.754;18.636;2023-05-20T01:21:44;38.50;;;26.12;;
56991;SDS011;42885;49.754;18.636;2023-05-20T01:24:19;45.25;;;27.90;;
56991;SDS011;42885;49.754;18.636;2023-05-20T01:26:51;46.30;;;28.12;;
56991;SDS011;42885;49.754;18.636;2023-05-20T01:29:22;43.60;;;26.90;;
56991;SDS011;42885;49.754;18.636;2023-05-20T01:31:56;45.08;;;27.45;;
56991;SDS011;42885;49.754;18.636;2023-05-20T01:34:29;44.80;;;27.10;;
56991;SDS011;42885;49.754;18.636;2023-05-20T01:37:02;46.08;;;28.17;;
56991;SDS011;42885;49.754;18.636;2023-05-20T01:39:35;50.73;;;29.70;;
56991;SDS011;42885;49.754;18.636;2023-05-20T01:42:09;47.33;;;28.77;;
56991;SDS011;42885;49.754;18.636;2023-05-20T01:44:42;46.98;;;27.37;;
56991;SDS011;42885;49.754;18.636;2023-05-20T01:47:13;48.55;;;29.55;;
56991;SDS011;42885;49.754;18.636;2023-05-20T01:49:44;45.17;;;27.58;;
56991;SDS011;42885;49.754;18.636;2023-05-20T01:52:15;47.58;;;28.80;;
56991;SDS011;42885;49.754;18.636;2023-05-20T01:54:46;47.05;;;29.57;;
56991;SDS011;42885;49.754;18.636;2023-05-20T01:57:20;52.27;;;29.45;;
56991;SDS011;42885;49.754;18.636;2023-05-20T01:59:53;51.50;;;29.37;;
56991;SDS011;42885;49.754;18.636;2023-05-20T02:02:24;47.95;;;29.15;;
56991;SDS011;42885;49.754;18.636;2023-05-20T02:04:55;51.68;;;29.25;;
56991;SDS011;42885;49.754;18.636;2023-05-20T02:07:26;49.27;;;29.35;;
56991;SDS011;42885;49.754;18.636;2023-05-20T02:09:58;52.25;;;29.77;;
56991;SDS011;42885;49.754;18.636;2023-05-20T02:12:30;55.50;;;29.50;;
56991;SDS011;42885;49.754;18.636;2023-05-20T02:15:00;53.00;;;29.67;;
56991;SDS011;42885;49.754;18.636;2023-05-20T02:17:31;53.73;;;29.80;;
56991;SDS011;42885;49.754;18.636;2023-05-20T02:20:02;50.53;;;29.83;;
56991;SDS011;42885;49.754;18.636;2023-05-20T02:22:35;54.65;;;30.02;;
56991;SDS011;42885;49.754;18.636;2023-05-20T02:25:06;50.85;;;30.35;;
56991;SDS011;42885;49.754;18.636;2023-05-20T02:27:38;51.75;;;30.95;;
56991;SDS011;42885;49.754;18.636;2023-05-20T02:30:09;47.67;;;29.45;;
56991;SDS011;42885;49.754;18.636;2023-05-20T02:32:41;54.83;;;30.62;;
56991;SDS011;42885;49.754;18.636;2023-05-20T02:35:13;51.63;;;29.73;;
56991;SDS011;42885;49.754;18.636;2023-05-20T02:37:44;55.23;;;29.95;;
56991;SDS011;42885;49.754;18.636;2023-05-20T02:40:17;52.27;;;29.63;;
56991;SDS011;42885;49.754;18.636;2023-05-20T02:42:47;48.85;;;28.77;;
56991;SDS011;42885;49.754;18.636;2023-05-20T02:45:19;50.25;;;29.55;;
56991;SDS011;42885;49.754;18.636;2023-05-20T02:47:50;50.98;;;30.00;;
56991;SDS011;42885;49.754;18.636;2023-05-20T02:50:20;47.40;;;29.57;;
56991;SDS011;42885;49.754;18.636;2023-05-20T02:52:51;48.73;;;29.52;;
56991;SDS011;42885;49.754;18.636;2023-05-20T02:55:23;45.65;;;27.87;;
56991;SDS011;42885;49.754;18.636;2023-05-20T02:57:56;49.00;;;28.70;;
56991;SDS011;42885;49.754;18.636;2023-05-20T03:00:27;45.28;;;26.75;;
56991;SDS011;42885;49.754;18.636;2023-05-20T03:03:03;46.25;;;28.02;;
56991;SDS011;42885;49.754;18.636;2023-05-20T03:05:35;46.18;;;28.30;;
56991;SDS011;42885;49.754;18.636;2023-05-20T03:08:09;47.70;;;29.33;;
56991;SDS011;42885;49.754;18.636;2023-05-20T03:10:40;50.90;;;30.12;;
56991;SDS011;42885;49.754;18.636;2023-05-20T03:13:11;48.52;;;30.68;;
56991;SDS011;42885;49.754;18.636;2023-05-20T03:15:43;49.23;;;30.62;;
56991;SDS011;42885;49.754;18.636;2023-05-20T03:18:14;44.77;;;27.93;;
56991;SDS011;42885;49.754;18.636;2023-05-20T03:20:46;43.05;;;26.97;;
56991;SDS011;42885;49.754;18.636;2023-05-20T03:23:18;47.25;;;26.97;;
56991;SDS011;42885;49.754;18.636;2023-05-20T03:25:50;45.12;;;27.42;;
56991;SDS011;42885;49.754;18.636;2023-05-20T03:28:21;44.00;;;27.48;;
56991;SDS011;42885;49.754;18.636;2023-05-20T03:30:52;46.73;;;28.02;;
56991;SDS011;42885;49.754;18.636;2023-05-20T03:33:23;43.17;;;27.45;;
56991;SDS011;42885;49.754;18.636;2023-05-20T03:35:54;44.73;;;26.37;;
56991;SDS011;42885;49.754;18.636;2023-05-20T03:38:25;46.98;;;26.70;;
56991;SDS011;42885;49.754;18.636;2023-05-20T03:40:58;45.38;;;28.02;;
56991;SDS011;42885;49.754;18.636;2023-05-20T03:43:29;49.90;;;28.30;;
56991;SDS011;42885;49.754;18.636;2023-05-20T03:46:00;48.90;;;26.85;;
56991;SDS011;42885;49.754;18.636;2023-05-20T03:48:31;45.80;;;27.60;;
56991;SDS011;42885;49.754;18.636;2023-05-20T03:51:02;42.73;;;25.50;;
56991;SDS011;42885;49.754;18.636;2023-05-20T03:53:33;45.73;;;26.62;;
56991;SDS011;42885;49.754;18.636;2023-05-20T03:56:04;47.38;;;27.02;;
56991;SDS011;42885;49.754;18.636;2023-05-20T03:58:36;42.00;;;26.12;;
56991;SDS011;42885;49.754;18.636;2023-05-20T04:01:07;43.48;;;25.62;;
56991;SDS011;42885;49.754;18.636;2023-05-20T04:03:40;45.63;;;26.23;;
56991;SDS011;42885;49.754;18.636;2023-05-20T04:06:12;43.55;;;24.30;;
56991;SDS011;42885;49.754;18.636;2023-05-20T04:08:43;41.88;;;25.25;;
56991;SDS011;42885;49.754;18.636;2023-05-20T04:11:14;43.40;;;26.10;;
56991;SDS011;42885;49.754;18.636;2023-05-20T04:13:45;42.50;;;26.12;;
56991;SDS011;42885;49.754;18.636;2023-05-20T04:16:16;46.28;;;26.42;;
56991;SDS011;42885;49.754;18.636;2023-05-20T04:18:46;43.07;;;25.47;;
56991;SDS011;42885;49.754;18.636;2023-05-20T04:21:18;44.90;;;26.37;;
56991;SDS011;42885;49.754;18.636;2023-05-20T04:23:49;45.80;;;26.77;;
56991;SDS011;42885;49.754;18.636;2023-05-20T04:26:21;45.35;;;26.40;;
56991;SDS011;42885;49.754;18.636;2023-05-20T04:28:52;44.93;;;26.52;;
56991;SDS011;42885;49.754;18.636;2023-05-20T04:31:25;45.57;;;26.07;;
56991;SDS011;42885;49.754;18.636;2023-05-20T04:33:56;48.70;;;26.57;;
56991;SDS011;42885;49.754;18.636;2023-05-20T04:36:27;42.75;;;25.55;;
56991;SDS011;42885;49.754;18.636;2023-05-20T04:38:59;46.92;;;26.93;;
56991;SDS011;42885;49.754;18.636;2023-05-20T04:41:31;50.45;;;26.45;;
56991;SDS011;42885;49.754;18.636;2023-05-20T04:44:05;48.07;;;26.83;;
56991;SDS011;42885;49.754;18.636;2023-05-20T04:46:36;48.00;;;27.55;;
56991;SDS011;42885;49.754;18.636;2023-05-20T04:49:07;43.23;;;25.30;;
56991;SDS011;42885;49.754;18.636;2023-05-20T04:51:38;44.90;;;26.65;;
56991;SDS011;42885;49.754;18.636;2023-05-20T04:54:09;49.13;;;24.98;;
56991;SDS011;42885;49.754;18.636;2023-05-20T04:56:40;46.42;;;26.57;;
56991;SDS011;42885;49.754;18.636;2023-05-20T04:59:11;49.03;;;27.05;;
56991;SDS011;42885;49.754;18.636;2023-05-20T05:01:42;47.08;;;26.57;;
56991;SDS011;42885;49.754;18.636;2023-05-20T05:04:13;43.50;;;26.45;;
56991;SDS011;42885;49.754;18.636;2023-05-20T05:06:46;48.60;;;26.75;;
56991;SDS011;42885;49.754;18.636;2023-05-20T05:09:18;45.15;;;25.00;;
56991;SDS011;42885;49.754;18.636;2023-05-20T05:11:49;45.30;;;25.70;;
56991;SDS011;42885;49.754;18.636;2023-05-20T05:14:20;44.08;;;24.40;;
56991;SDS011;42885;49.754;18.636;2023-05-20T05:16:52;41.98;;;24.87;;
56991;SDS011;42885;49.754;18.636;2023-05-20T05:19:23;43.70;;;25.32;;
56991;SDS011;42885;49.754;18.636;2023-05-20T05:21:54;39.13;;;23.07;;
56991;SDS011;42885;49.754;18.636;2023-05-20T05:24:24;42.60;;;24.12;;
56991;SDS011;42885;49.754;18.636;2023-05-20T05:26:55;44.07;;;25.20;;
56991;SDS011;42885;49.754;18.636;2023-05-20T05:29:26;39.37;;;23.13;;
56991;SDS011;42885;49.754;18.636;2023-05-20T05:31:57;44.05;;;24.90;;
56991;SDS011;42885;49.754;18.636;2023-05-20T05:34:29;41.25;;;24.07;;
56991;SDS011;42885;49.754;18.636;2023-05-20T05:36:59;41.27;;;23.90;;
56991;SDS011;42885;49.754;18.636;2023-05-20T05:39:30;38.90;;;23.10;;
56991;SDS011;42885;49.754;18.636;2023-05-20T05:42:03;33.60;;;21.65;;
56991;SDS011;42885;49.754;18.636;2023-05-20T05:44:35;37.87;;;22.03;;
56991;SDS011;42885;49.754;18.636;2023-05-20T05:47:07;40.50;;;23.23;;
56991;SDS011;42885;49.754;18.636;2023-05-20T05:49:38;35.73;;;21.42;;
56991;SDS011;42885;49.754;18.636;2023-05-20T05:52:09;32.63;;;21.73;;
56991;SDS011;42885;49.754;18.636;2023-05-20T05:54:41;34.48;;;20.15;;
56991;SDS011;42885;49.754;18.636;2023-05-20T05:57:12;32.57;;;20.57;;
56991;SDS011;42885;49.754;18.636;2023-05-20T05:59:44;33.28;;;19.70;;
56991;SDS011;42885;49.754;18.636;2023-05-20T06:02:15;28.83;;;19.00;;
56991;SDS011;42885;49.754;18.636;2023-05-20T06:04:46;33.05;;;21.15;;
56991;SDS011;42885;49.754;18.636;2023-05-20T06:07:18;33.08;;;20.02;;
56991;SDS011;42885;49.754;18.636;2023-05-20T06:09:49;27.45;;;18.65;;
56991;SDS011;42885;49.754;18.636;2023-05-20T06:12:20;27.87;;;18.35;;
56991;SDS011;42885;49.754;18.636;2023-05-20T06:14:51;28.92;;;18.73;;
56991;SDS011;42885;49.754;18.636;2023-05-20T06:17:22;27.62;;;18.37;;
56991;SDS011;42885;49.754;18.636;2023-05-20T06:19:53;27.52;;;18.50;;
56991;SDS011;42885;49.754;18.636;2023-05-20T06:22:24;34.30;;;20.72;;
56991;SDS011;42885;49.754;18.636;2023-05-20T06:24:56;34.33;;;21.75;;
56991;SDS011;42885;49.754;18.636;2023-05-20T06:27:28;35.83;;;21.53;;
56991;SDS011;42885;49.754;18.636;2023-05-20T06:30:01;32.88;;;22.17;;
56991;SDS011;42885;49.754;18.636;2023-05-20T06:32:32;32.80;;;21.30;;
56991;SDS011;42885;49.754;18.636;2023-05-20T06:35:04;32.17;;;21.40;;
56991;SDS011;42885;49.754;18.636;2023-05-20T06:37:35;34.08;;;22.52;;
56991;SDS011;42885;49.754;18.636;2023-05-20T06:40:06;35.43;;;22.07;;
56991;SDS011;42885;49.754;18.636;2023-05-20T06:42:38;30.70;;;20.97;;
56991;SDS011;42885;49.754;18.636;2023-05-20T06:45:09;33.95;;;21.73;;
56991;SDS011;42885;49.754;18.636;2023-05-20T06:47:46;30.02;;;20.08;;
56991;SDS011;42885;49.754;18.636;2023-05-20T06:50:17;29.72;;;20.37;;
56991;SDS011;42885;49.754;18.636;2023-05-20T06:52:49;28.67;;;20.52;;
56991;SDS011;42885;49.754;18.636;2023-05-20T06:55:20;29.07;;;20.17;;
56991;SDS011;42885;49.754;18.636;2023-05-20T06:57:51;27.45;;;19.95;;
56991;SDS011;42885;49.754;18.636;2023-05-20T07:00:23;32.73;;;21.93;;
56991;SDS011;42885;49.754;18.636;2023-05-20T07:02:55;31.35;;;20.50;;
56991;SDS011;42885;49.754;18.636;2023-05-20T07:05:26;28.00;;;20.82;;
56991;SDS011;42885;49.754;18.636;2023-05-20T07:07:57;29.70;;;21.12;;
56991;SDS011;42885;49.754;18.636;2023-05-20T07:10:30;27.70;;;19.97;;
56991;SDS011;42885;49.754;18.636;2023-05-20T07:13:01;30.82;;;20.88;;
56991;SDS011;42885;49.754;18.636;2023-05-20T07:15:32;28.55;;;19.00;;
56991;SDS011;42885;49.754;18.636;2023-05-20T07:18:03;30.48;;;20.40;;
56991;SDS011;42885;49.754;18.636;2023-05-20T07:20:34;32.83;;;19.40;;
56991;SDS011;42885;49.754;18.636;2023-05-20T07:23:07;34.03;;;22.17;;
56991;SDS011;42885;49.754;18.636;2023-05-20T07:25:46;32.28;;;21.60;;
56991;SDS011;42885;49.754;18.636;2023-05-20T07:28:18;32.53;;;21.65;;
56991;SDS011;42885;49.754;18.636;2023-05-20T07:30:51;29.00;;;20.20;;
56991;SDS011;42885;49.754;18.636;2023-05-20T07:33:24;34.10;;;22.43;;
56991;SDS011;42885;49.754;18.636;2023-05-20T07:35:55;32.63;;;21.10;;
56991;SDS011;42885;49.754;18.636;2023-05-20T07:38:26;31.15;;;21.05;;
56991;SDS011;42885;49.754;18.636;2023-05-20T07:41:02;32.47;;;21.53;;
56991;SDS011;42885;49.754;18.636;2023-05-20T07:43:33;27.07;;;19.05;;
56991;SDS011;42885;49.754;18.636;2023-05-20T07:46:04;27.82;;;19.73;;
56991;SDS011;42885;49.754;18.636;2023-05-20T07:48:35;26.55;;;19.27;;
56991;SDS011;42885;49.754;18.636;2023-05-20T07:51:06;27.35;;;19.23;;
56991;SDS011;42885;49.754;18.636;2023-05-20T07:53:38;26.95;;;19.75;;
56991;SDS011;42885;49.754;18.636;2023-05-20T07:56:09;28.47;;;20.20;;
56991;SDS011;42885;49.754;18.636;2023-05-20T07:58:41;28.47;;;18.85;;
56991;SDS011;42885;49.754;18.636;2023-05-20T08:01:12;28.92;;;19.35;;
56991;SDS011;42885;49.754;18.636;2023-05-20T08:03:44;25.82;;;20.02;;
56991;SDS011;42885;49.754;18.636;2023-05-20T08:06:18;40.65;;;29.57;;
56991;SDS011;42885;49.754;18.636;2023-05-20T08:08:49;24.40;;;18.37;;
56991;SDS011;42885;49.754;18.636;2023-05-20T08:11:26;25.68;;;18.80;;
56991;SDS011;42885;49.754;18.636;2023-05-20T08:13:58;24.80;;;17.35;;
56991;SDS011;42885;49.754;18.636;2023-05-20T08:16:32;24.45;;;18.00;;
56991;SDS011;42885;49.754;18.636;2023-05-20T08:19:04;23.07;;;17.73;;
56991;SDS011;42885;49.754;18.636;2023-05-20T08:21:37;26.50;;;18.23;;
56991;SDS011;42885;49.754;18.636;2023-05-20T08:24:08;27.00;;;18.15;;
56991;SDS011;42885;49.754;18.636;2023-05-20T08:26:39;26.07;;;18.90;;
56991;SDS011;42885;49.754;18.636;2023-05-20T08:29:11;25.73;;;19.00;;
56991;SDS011;42885;49.754;18.636;2023-05-20T08:31:42;23.83;;;18.23;;
56991;SDS011;42885;49.754;18.636;2023-05-20T08:34:14;24.43;;;18.87;;
56991;SDS011;42885;49.754;18.636;2023-05-20T08:36:45;19.85;;;16.57;;
56991;SDS011;42885;49.754;18.636;2023-05-20T08:39:16;22.60;;;17.02;;
56991;SDS011;42885;49.754;18.636;2023-05-20T08:41:47;21.45;;;16.73;;
56991;SDS011;42885;49.754;18.636;2023-05-20T08:44:19;20.48;;;15.93;;
56991;SDS011;42885;49.754;18.636;2023-05-20T08:46:52;22.17;;;16.32;;
56991;SDS011;42885;49.754;18.636;2023-05-20T08:49:25;20.77;;;15.28;;
56991;SDS011;42885;49.754;18.636;2023-05-20T08:51:57;18.52;;;15.25;;
56991;SDS011;42885;49.754;18.636;2023-05-20T08:54:44;18.77;;;14.50;;
56991;SDS011;42885;49.754;18.636;2023-05-20T08:57:06;19.77;;;14.43;;
56991;SDS011;42885;49.754;18.636;2023-05-20T08:59:37;19.07;;;14.40;;
56991;SDS011;42885;49.754;18.636;2023-05-20T09:02:12;18.70;;;14.65;;
56991;SDS011;42885;49.754;18.636;2023-05-20T09:04:44;18.40;;;14.65;;
56991;SDS011;42885;49.754;18.636;2023-05-20T09:07:25;19.05;;;14.35;;
56991;SDS011;42885;49.754;18.636;2023-05-20T09:12:28;18.17;;;14.55;;
56991;SDS011;42885;49.754;18.636;2023-05-20T09:14:59;15.65;;;13.85;;
56991;SDS011;42885;49.754;18.636;2023-05-20T09:17:31;14.40;;;12.67;;
56991;SDS011;42885;49.754;18.636;2023-05-20T09:20:08;15.00;;;13.20;;
56991;SDS011;42885;49.754;18.636;2023-05-20T09:22:40;14.47;;;12.95;;
56991;SDS011;42885;49.754;18.636;2023-05-20T09:25:11;14.35;;;12.85;;
56991;SDS011;42885;49.754;18.636;2023-05-20T09:27:44;15.87;;;13.83;;
56991;SDS011;42885;49.754;18.636;2023-05-20T09:30:18;16.17;;;12.68;;
56991;SDS011;42885;49.754;18.636;2023-05-20T09:32:59;15.28;;;13.32;;
56991;SDS011;42885;49.754;18.636;2023-05-20T09:35:26;14.85;;;12.85;;
56991;SDS011;42885;49.754;18.636;2023-05-20T09:37:58;16.65;;;12.90;;
56991;SDS011;42885;49.754;18.636;2023-05-20T09:40:30;14.20;;;12.88;;
56991;SDS011;42885;49.754;18.636;2023-05-20T09:43:02;16.62;;;14.60;;
56991;SDS011;42885;49.754;18.636;2023-05-20T09:45:36;13.60;;;11.38;;
56991;SDS011;42885;49.754;18.636;2023-05-20T09:48:07;14.73;;;10.70;;
56991;SDS011;42885;49.754;18.636;2023-05-20T09:50:40;13.30;;;10.45;;
56991;SDS011;42885;49.754;18.636;2023-05-20T09:53:13;13.27;;;11.37;;
56991;SDS011;42885;49.754;18.636;2023-05-20T09:55:44;12.40;;;10.13;;
56991;SDS011;42885;49.754;18.636;2023-05-20T09:58:16;12.25;;;11.03;;
56991;SDS011;42885;49.754;18.636;2023-05-20T10:00:48;12.40;;;10.98;;
56991;SDS011;42885;49.754;18.636;2023-05-20T10:03:22;12.53;;;10.75;;
56991;SDS011;42885;49.754;18.636;2023-05-20T10:08:57;13.03;;;9.30;;
56991;SDS011;42885;49.754;18.636;2023-05-20T10:11:48;12.57;;;8.90;;
56991;SDS011;42885;49.754;18.636;2023-05-20T10:14:30;10.23;;;9.13;;
56991;SDS011;42885;49.754;18.636;2023-05-20T10:17:16;12.43;;;8.85;;
56991;SDS011;42885;49.754;18.636;2023-05-20T10:19:56;11.22;;;9.35;;
56991;SDS011;42885;49.754;18.636;2023-05-20T10:22:28;11.10;;;9.90;;
56991;SDS011;42885;49.754;18.636;2023-05-20T10:25:06;12.13;;;10.08;;
56991;SDS011;42885;49.754;18.636;2023-05-20T10:27:45;13.35;;;9.68;;
56991;SDS011;42885;49.754;18.636;2023-05-20T10:30:23;10.68;;;9.53;;
56991;SDS011;42885;49.754;18.636;2023-05-20T10:32:54;11.15;;;10.00;;
56991;SDS011;42885;49.754;18.636;2023-05-20T10:35:28;11.85;;;9.45;;
56991;SDS011;42885;49.754;18.636;2023-05-20T10:38:09;11.85;;;9.43;;
56991;SDS011;42885;49.754;18.636;2023-05-20T10:40:41;13.15;;;11.00;;
56991;SDS011;42885;49.754;18.636;2023-05-20T10:43:13;11.87;;;10.60;;
56991;SDS011;42885;49.754;18.636;2023-05-20T10:45:50;11.50;;;10.35;;
56991;SDS011;42885;49.754;18.636;2023-05-20T10:50:57;14.45;;;10.80;;
56991;SDS011;42885;49.754;18.636;2023-05-20T10:53:38;15.13;;;10.85;;
56991;SDS011;42885;49.754;18.636;2023-05-20T10:56:16;22.00;;;11.33;;
56991;SDS011;42885;49.754;18.636;2023-05-20T10:58:50;19.37;;;11.95;;
56991;SDS011;42885;49.754;18.636;2023-05-20T11:01:23;13.98;;;12.47;;
56991;SDS011;42885;49.754;18.636;2023-05-20T11:03:56;14.30;;;12.37;;
56991;SDS011;42885;49.754;18.636;2023-05-20T11:06:28;13.28;;;11.03;;
56991;SDS011;42885;49.754;18.636;2023-05-20T11:09:03;19.23;;;12.25;;
56991;SDS011;42885;49.754;18.636;2023-05-20T11:11:35;13.60;;;12.30;;
56991;SDS011;42885;49.754;18.636;2023-05-20T11:14:06;15.43;;;11.90;;
56991;SDS011;42885;49.754;18.636;2023-05-20T11:16:40;15.68;;;12.80;;
56991;SDS011;42885;49.754;18.636;2023-05-20T11:19:15;14.63;;;12.33;;
56991;SDS011;42885;49.754;18.636;2023-05-20T11:21:47;18.77;;;12.63;;
56991;SDS011;42885;49.754;18.636;2023-05-20T11:24:22;13.77;;;11.70;;
56991;SDS011;42885;49.754;18.636;2023-05-20T11:26:56;14.17;;;12.63;;
56991;SDS011;42885;49.754;18.636;2023-05-20T11:29:30;14.30;;;11.57;;
56991;SDS011;42885;49.754;18.636;2023-05-20T11:32:01;13.80;;;12.30;;
56991;SDS011;42885;49.754;18.636;2023-05-20T11:34:36;13.68;;;12.07;;
56991;SDS011;42885;49.754;18.636;2023-05-20T11:37:08;15.13;;;12.73;;
56991;SDS011;42885;49.754;18.636;2023-05-20T11:39:40;14.55;;;13.05;;
56991;SDS011;42885;49.754;18.636;2023-05-20T11:42:11;14.53;;;13.13;;
56991;SDS011;42885;49.754;18.636;2023-05-20T11:44:44;15.55;;;13.38;;
56991;SDS011;42885;49.754;18.636;2023-05-20T11:47:23;15.18;;;13.58;;
56991;SDS011;42885;49.754;18.636;2023-05-20T11:49:51;15.95;;;13.80;;
56991;SDS011;42885;49.754;18.636;2023-05-20T11:52:22;15.88;;;14.03;;
56991;SDS011;42885;49.754;18.636;2023-05-20T11:54:54;18.32;;;13.58;;
56991;SDS011;42885;49.754;18.636;2023-05-20T11:57:25;16.93;;;13.83;;
56991;SDS011;42885;49.754;18.636;2023-05-20T11:59:56;15.70;;;14.15;;
56991;SDS011;42885;49.754;18.636;2023-05-20T12:02:27;17.00;;;15.20;;
56991;SDS011;42885;49.754;18.636;2023-05-20T12:04:58;16.54;;;14.80;;
56991;SDS011;42885;49.754;18.636;2023-05-20T12:07:30;18.17;;;14.85;;
56991;SDS011;42885;49.754;18.636;2023-05-20T12:10:01;16.75;;;14.53;;
56991;SDS011;42885;49.754;18.636;2023-05-20T12:12:32;15.50;;;13.85;;
56991;SDS011;42885;49.754;18.636;2023-05-20T12:15:04;16.90;;;15.23;;
56991;SDS011;42885;49.754;18.636;2023-05-20T12:17:51;15.70;;;13.80;;
56991;SDS011;42885;49.754;18.636;2023-05-20T12:20:23;15.80;;;14.13;;
56991;SDS011;42885;49.754;18.636;2023-05-20T12:22:54;19.87;;;16.17;;
56991;SDS011;42885;49.754;18.636;2023-05-20T12:25:26;17.77;;;15.45;;
56991;SDS011;42885;49.754;18.636;2023-05-20T12:28:00;21.17;;;16.23;;
56991;SDS011;42885;49.754;18.636;2023-05-20T12:30:31;18.92;;;15.78;;
56991;SDS011;42885;49.754;18.636;2023-05-20T12:33:02;19.92;;;15.03;;
56991;SDS011;42885;49.754;18.636;2023-05-20T12:35:38;19.17;;;16.80;;
56991;SDS011;42885;49.754;18.636;2023-05-20T12:38:10;18.50;;;16.60;;
56991;SDS011;42885;49.754;18.636;2023-05-20T12:40:41;16.65;;;14.75;;
56991;SDS011;42885;49.754;18.636;2023-05-20T12:43:12;20.10;;;16.20;;
56991;SDS011;42885;49.754;18.636;2023-05-20T12:45:42;18.00;;;16.00;;
56991;SDS011;42885;49.754;18.636;2023-05-20T12:48:15;18.17;;;15.60;;
56991;SDS011;42885;49.754;18.636;2023-05-20T12:50:46;19.95;;;16.23;;
56991;SDS011;42885;49.754;18.636;2023-05-20T12:53:17;18.17;;;15.78;;
56991;SDS011;42885;49.754;18.636;2023-05-20T12:55:48;21.68;;;18.25;;
56991;SDS011;42885;49.754;18.636;2023-05-20T12:58:19;22.82;;;18.15;;
56991;SDS011;42885;49.754;18.636;2023-05-20T13:00:50;21.05;;;18.80;;
56991;SDS011;42885;49.754;18.636;2023-05-20T13:03:22;24.70;;;20.00;;
56991;SDS011;42885;49.754;18.636;2023-05-20T13:05:53;24.37;;;19.62;;
56991;SDS011;42885;49.754;18.636;2023-05-20T13:08:25;21.03;;;17.87;;
56991;SDS011;42885;49.754;18.636;2023-05-20T13:10:56;27.70;;;21.00;;
56991;SDS011;42885;49.754;18.636;2023-05-20T13:13:27;22.55;;;20.00;;
56991;SDS011;42885;49.754;18.636;2023-05-20T13:15:58;23.20;;;19.67;;
56991;SDS011;42885;49.754;18.636;2023-05-20T13:18:29;27.32;;;19.50;;
56991;SDS011;42885;49.754;18.636;2023-05-20T13:21:00;22.02;;;19.12;;
56991;SDS011;42885;49.754;18.636;2023-05-20T13:23:31;27.27;;;22.82;;
56991;SDS011;42885;49.754;18.636;2023-05-20T13:26:02;25.08;;;21.73;;
56991;SDS011;42885;49.754;18.636;2023-05-20T13:28:34;26.75;;;20.40;;
56991;SDS011;42885;49.754;18.636;2023-05-20T13:31:05;24.80;;;20.77;;
56991;SDS011;42885;49.754;18.636;2023-05-20T13:33:36;27.40;;;23.17;;
56991;SDS011;42885;49.754;18.636;2023-05-20T13:36:07;29.27;;;22.50;;
56991;SDS011;42885;49.754;18.636;2023-05-20T13:38:38;27.20;;;22.30;;
56991;SDS011;42885;49.754;18.636;2023-05-20T13:41:10;24.83;;;22.00;;
56991;SDS011;42885;49.754;18.636;2023-05-20T13:43:41;25.00;;;21.73;;
56991;SDS011;42885;49.754;18.636;2023-05-20T13:46:12;25.27;;;22.47;;
56991;SDS011;42885;49.754;18.636;2023-05-20T13:48:43;28.60;;;22.47;;
56991;SDS011;42885;49.754;18.636;2023-05-20T13:51:14;27.00;;;24.03;;
56991;SDS011;42885;49.754;18.636;2023-05-20T13:53:45;28.70;;;23.27;;
56991;SDS011;42885;49.754;18.636;2023-05-20T13:56:17;26.42;;;23.55;;
56991;SDS011;42885;49.754;18.636;2023-05-20T13:58:48;30.63;;;25.13;;
56991;SDS011;42885;49.754;18.636;2023-05-20T14:01:19;26.10;;;23.20;;
56991;SDS011;42885;49.754;18.636;2023-05-20T14:03:50;25.37;;;22.67;;
56991;SDS011;42885;49.754;18.636;2023-05-20T14:06:21;27.73;;;23.27;;
56991;SDS011;42885;49.754;18.636;2023-05-20T14:08:53;23.55;;;20.97;;
56991;SDS011;42885;49.754;18.636;2023-05-20T14:11:26;25.77;;;22.05;;
56991;SDS011;42885;49.754;18.636;2023-05-20T14:13:57;25.52;;;22.15;;
56991;SDS011;42885;49.754;18.636;2023-05-20T14:16:28;25.12;;;22.40;;
56991;SDS011;42885;49.754;18.636;2023-05-20T14:19:00;27.77;;;23.65;;
56991;SDS011;42885;49.754;18.636;2023-05-20T14:21:32;26.20;;;22.60;;
56991;SDS011;42885;49.754;18.636;2023-05-20T14:24:03;29.77;;;22.43;;
56991;SDS011;42885;49.754;18.636;2023-05-20T14:26:34;24.53;;;21.93;;
56991;SDS011;42885;49.754;18.636;2023-05-20T14:29:05;26.23;;;21.90;;
56991;SDS011;42885;49.754;18.636;2023-05-20T14:31:36;26.02;;;21.68;;
56991;SDS011;42885;49.754;18.636;2023-05-20T14:34:08;26.63;;;22.73;;
56991;SDS011;42885;49.754;18.636;2023-05-20T14:36:39;30.82;;;23.32;;
56991;SDS011;42885;49.754;18.636;2023-05-20T14:39:10;26.97;;;23.80;;
56991;SDS011;42885;49.754;18.636;2023-05-20T14:41:42;27.63;;;22.67;;
56991;SDS011;42885;49.754;18.636;2023-05-20T14:44:13;23.85;;;21.30;;
56991;SDS011;42885;49.754;18.636;2023-05-20T14:46:44;53.28;;;22.90;;